sensor_id;sensor_type;location;lat;lon;timestamp;pressure;altitude;pressure_sealevel;temperature;humidity
42335;BME280;27986;42.700;24.178;2022-11-22T00:00:58;93211.88;;;3.52;100.00
42335;BME280;27986;42.700;24.178;2022-11-22T00:03:23;93192.75;;;3.77;100.00
42335;BME280;27986;42.700;24.178;2022-11-22T00:05:49;93193.88;;;4.07;100.00
42335;BME280;27986;42.700;24.178;2022-11-22T00:08:14;93218.47;;;4.03;100.00
42335;BME280;27986;42.700;24.178;2022-11-22T00:10:39;93207.06;;;4.07;100.00
42335;BME280;27986;42.700;24.178;2022-11-22T00:13:05;93213.16;;;4.05;100.00
42335;BME280;27986;42.700;24.178;2022-11-22T00:15:30;93209.00;;;3.84;100.00
42335;BME280;27986;42.700;24.178;2022-11-22T00:17:56;93240.84;;;4.20;100.00
42335;BME280;27986;42.700;24.178;2022-11-22T00:20:21;93206.78;;;3.45;100.00
42335;BME280;27986;42.700;24.178;2022-11-22T00:22:47;93209.75;;;3.36;100.00
42335;BME280;27986;42.700;24.178;2022-11-22T00:25:13;93217.22;;;3.56;100.00
42335;BME280;27986;42.700;24.178;2022-11-22T00:27:39;93244.13;;;3.64;100.00
42335;BME280;27986;42.700;24.178;2022-11-22T00:30:05;93245.50;;;3.80;100.00
42335;BME280;27986;42.700;24.178;2022-11-22T00:32:31;93176.72;;;3.66;100.00
42335;BME280;27986;42.700;24.178;2022-11-22T00:34:57;93217.56;;;4.34;100.00
42335;BME280;27986;42.700;24.178;2022-11-22T00:37:22;93248.09;;;4.60;96.16
42335;BME280;27986;42.700;24.178;2022-11-22T00:39:48;93223.41;;;4.31;95.17
42335;BME280;27986;42.700;24.178;2022-11-22T00:42:13;93202.28;;;4.13;94.59
42335;BME280;27986;42.700;24.178;2022-11-22T00:44:39;93224.09;;;4.20;95.99
42335;BME280;27986;42.700;24.178;2022-11-22T00:47:04;93234.84;;;4.38;97.63
42335;BME280;27986;42.700;24.178;2022-11-22T00:49:30;93244.81;;;4.67;97.47
42335;BME280;27986;42.700;24.178;2022-11-22T00:51:55;93187.88;;;4.37;97.48
42335;BME280;27986;42.700;24.178;2022-11-22T00:54:21;93251.19;;;4.90;96.45
42335;BME280;27986;42.700;24.178;2022-11-22T00:56:46;93217.34;;;4.49;95.92
42335;BME280;27986;42.700;24.178;2022-11-22T00:59:11;93240.22;;;4.70;94.45
42335;BME280;27986;42.700;24.178;2022-11-22T01:01:37;93230.59;;;4.76;93.84
42335;BME280;27986;42.700;24.178;2022-11-22T01:04:03;93271.53;;;5.02;93.36
42335;BME280;27986;42.700;24.178;2022-11-22T01:06:28;93227.53;;;4.69;94.29
42335;BME280;27986;42.700;24.178;2022-11-22T01:08:55;93251.72;;;5.00;92.84
42335;BME280;27986;42.700;24.178;2022-11-22T01:11:21;93213.34;;;4.84;92.70
42335;BME280;27986;42.700;24.178;2022-11-22T01:13:46;93222.19;;;4.60;93.13
42335;BME280;27986;42.700;24.178;2022-11-22T01:16:12;93201.53;;;4.18;94.16
42335;BME280;27986;42.700;24.178;2022-11-22T01:18:38;93248.78;;;4.44;94.72
42335;BME280;27986;42.700;24.178;2022-11-22T01:21:04;93218.50;;;4.09;95.82
42335;BME280;27986;42.700;24.178;2022-11-22T01:23:30;93253.56;;;3.78;97.86
42335;BME280;27986;42.700;24.178;2022-11-22T01:25:56;93199.19;;;3.46;100.00
42335;BME280;27986;42.700;24.178;2022-11-22T01:28:21;93198.69;;;3.47;99.25
42335;BME280;27986;42.700;24.178;2022-11-22T01:30:51;93238.88;;;3.78;98.93
42335;BME280;27986;42.700;24.178;2022-11-22T01:33:18;93216.53;;;3.66;98.95
42335;BME280;27986;42.700;24.178;2022-11-22T01:35:43;93251.28;;;3.77;97.74
42335;BME280;27986;42.700;24.178;2022-11-22T01:38:09;93238.59;;;3.70;98.89
42335;BME280;27986;42.700;24.178;2022-11-22T01:40:34;93235.19;;;3.98;98.72
42335;BME280;27986;42.700;24.178;2022-11-22T01:43:02;93145.78;;;3.58;95.76
42335;BME280;27986;42.700;24.178;2022-11-22T01:50:46;93231.69;;;3.60;97.60
42335;BME280;27986;42.700;24.178;2022-11-22T01:53:16;93228.47;;;3.73;96.25
42335;BME280;27986;42.700;24.178;2022-11-22T01:55:44;93201.91;;;3.83;94.89
42335;BME280;27986;42.700;24.178;2022-11-22T01:58:12;93234.47;;;4.08;94.25
42335;BME280;27986;42.700;24.178;2022-11-22T02:00:39;93239.59;;;4.27;93.00
42335;BME280;27986;42.700;24.178;2022-11-22T02:03:06;93225.38;;;4.13;92.08
42335;BME280;27986;42.700;24.178;2022-11-22T02:05:34;93212.66;;;4.07;91.85
42335;BME280;27986;42.700;24.178;2022-11-22T02:08:08;93260.88;;;4.18;93.50
42335;BME280;27986;42.700;24.178;2022-11-22T02:10:41;93255.22;;;4.02;94.07
42335;BME280;27986;42.700;24.178;2022-11-22T02:13:09;93262.47;;;3.82;95.38
42335;BME280;27986;42.700;24.178;2022-11-22T02:15:35;93266.06;;;3.88;96.04
42335;BME280;27986;42.700;24.178;2022-11-22T02:18:01;93231.25;;;3.73;95.76
42335;BME280;27986;42.700;24.178;2022-11-22T02:20:26;93255.91;;;3.85;94.54
42335;BME280;27986;42.700;24.178;2022-11-22T02:23:05;93222.81;;;3.56;95.39
42335;BME280;27986;42.700;24.178;2022-11-22T02:28:08;93215.28;;;3.30;97.47
42335;BME280;27986;42.700;24.178;2022-11-22T02:30:38;93239.69;;;3.41;97.21
42335;BME280;27986;42.700;24.178;2022-11-22T02:33:04;93229.44;;;3.27;97.53
42335;BME280;27986;42.700;24.178;2022-11-22T02:35:30;93233.59;;;3.43;97.43
42335;BME280;27986;42.700;24.178;2022-11-22T02:38:02;93242.63;;;3.63;94.84
42335;BME280;27986;42.700;24.178;2022-11-22T02:40:31;93202.38;;;3.33;95.27
42335;BME280;27986;42.700;24.178;2022-11-22T02:43:01;93205.09;;;3.22;94.87
42335;BME280;27986;42.700;24.178;2022-11-22T02:45:27;93211.28;;;3.37;95.54
42335;BME280;27986;42.700;24.178;2022-11-22T02:47:53;93246.47;;;3.72;95.29
42335;BME280;27986;42.700;24.178;2022-11-22T02:50:18;93239.91;;;3.80;94.27
42335;BME280;27986;42.700;24.178;2022-11-22T02:52:44;93238.75;;;3.55;94.01
42335;BME280;27986;42.700;24.178;2022-11-22T02:55:09;93223.09;;;3.26;96.42
42335;BME280;27986;42.700;24.178;2022-11-22T02:57:34;93208.84;;;2.81;97.55
42335;BME280;27986;42.700;24.178;2022-11-22T03:00:00;93258.84;;;2.96;99.69
42335;BME280;27986;42.700;24.178;2022-11-22T03:02:26;93255.16;;;2.85;100.00
42335;BME280;27986;42.700;24.178;2022-11-22T03:04:51;93230.09;;;2.79;100.00
42335;BME280;27986;42.700;24.178;2022-11-22T03:07:16;93239.75;;;3.15;99.99
42335;BME280;27986;42.700;24.178;2022-11-22T03:09:42;93239.97;;;3.12;99.41
42335;BME280;27986;42.700;24.178;2022-11-22T03:12:08;93238.13;;;3.03;98.21
42335;BME280;27986;42.700;24.178;2022-11-22T03:14:33;93257.66;;;3.08;98.62
42335;BME280;27986;42.700;24.178;2022-11-22T03:16:59;93237.53;;;2.93;99.20
42335;BME280;27986;42.700;24.178;2022-11-22T03:19:24;93251.13;;;3.12;98.95
42335;BME280;27986;42.700;24.178;2022-11-22T03:21:50;93225.69;;;2.98;99.02
42335;BME280;27986;42.700;24.178;2022-11-22T03:24:15;93242.75;;;3.12;98.22
42335;BME280;27986;42.700;24.178;2022-11-22T03:26:45;93252.72;;;3.24;98.28
42335;BME280;27986;42.700;24.178;2022-11-22T03:29:11;93237.53;;;3.25;96.07
42335;BME280;27986;42.700;24.178;2022-11-22T03:31:36;93231.66;;;3.17;94.04
42335;BME280;27986;42.700;24.178;2022-11-22T03:34:02;93211.44;;;2.91;94.91
42335;BME280;27986;42.700;24.178;2022-11-22T03:36:27;93239.13;;;2.74;96.66
42335;BME280;27986;42.700;24.178;2022-11-22T03:38:53;93240.22;;;2.82;96.68
42335;BME280;27986;42.700;24.178;2022-11-22T03:41:18;93235.00;;;2.64;96.92
42335;BME280;27986;42.700;24.178;2022-11-22T03:43:43;93211.53;;;2.44;97.37
42335;BME280;27986;42.700;24.178;2022-11-22T03:46:14;93245.63;;;2.39;99.43
42335;BME280;27986;42.700;24.178;2022-11-22T03:48:39;93222.34;;;2.37;100.00
42335;BME280;27986;42.700;24.178;2022-11-22T03:51:06;93259.31;;;2.69;100.00
42335;BME280;27986;42.700;24.178;2022-11-22T03:53:32;93239.13;;;2.74;100.00
42335;BME280;27986;42.700;24.178;2022-11-22T03:55:58;93227.69;;;2.66;100.00
42335;BME280;27986;42.700;24.178;2022-11-22T03:58:24;93198.59;;;2.67;99.36
42335;BME280;27986;42.700;24.178;2022-11-22T04:00:49;93227.56;;;2.81;98.19
42335;BME280;27986;42.700;24.178;2022-11-22T04:03:15;93232.94;;;2.90;98.08
42335;BME280;27986;42.700;24.178;2022-11-22T04:05:40;93240.31;;;2.93;97.08
42335;BME280;27986;42.700;24.178;2022-11-22T04:08:06;93223.94;;;2.69;96.85
42335;BME280;27986;42.700;24.178;2022-11-22T04:10:31;93245.03;;;2.81;97.53
42335;BME280;27986;42.700;24.178;2022-11-22T04:12:58;93250.50;;;3.02;96.36
42335;BME280;27986;42.700;24.178;2022-11-22T04:15:25;93261.06;;;3.24;96.09
42335;BME280;27986;42.700;24.178;2022-11-22T04:17:51;93233.78;;;2.96;94.86
42335;BME280;27986;42.700;24.178;2022-11-22T04:20:21;93294.44;;;3.13;95.62
42335;BME280;27986;42.700;24.178;2022-11-22T04:23:10;93263.22;;;3.08;94.98
42335;BME280;27986;42.700;24.178;2022-11-22T04:25:39;93284.38;;;3.26;93.47
42335;BME280;27986;42.700;24.178;2022-11-22T04:28:06;93270.13;;;3.13;93.99
42335;BME280;27986;42.700;24.178;2022-11-22T04:30:32;93259.34;;;3.00;93.19
42335;BME280;27986;42.700;24.178;2022-11-22T04:33:16;93265.34;;;2.88;94.01
42335;BME280;27986;42.700;24.178;2022-11-22T04:35:43;93264.66;;;2.98;94.18
42335;BME280;27986;42.700;24.178;2022-11-22T04:38:09;93282.03;;;2.88;94.13
42335;BME280;27986;42.700;24.178;2022-11-22T04:40:35;93304.81;;;2.86;93.56
42335;BME280;27986;42.700;24.178;2022-11-22T04:43:01;93243.84;;;2.16;95.30
42335;BME280;27986;42.700;24.178;2022-11-22T04:45:45;93265.88;;;2.40;95.61
42335;BME280;27986;42.700;24.178;2022-11-22T04:48:11;93262.25;;;2.34;95.81
42335;BME280;27986;42.700;24.178;2022-11-22T04:50:38;93308.56;;;2.83;95.20
42335;BME280;27986;42.700;24.178;2022-11-22T04:53:22;93286.50;;;2.53;94.31
42335;BME280;27986;42.700;24.178;2022-11-22T04:55:48;93291.31;;;2.53;94.52
42335;BME280;27986;42.700;24.178;2022-11-22T04:58:14;93331.41;;;2.87;93.93
42335;BME280;27986;42.700;24.178;2022-11-22T05:00:39;93332.19;;;2.93;94.18
42335;BME280;27986;42.700;24.178;2022-11-22T05:03:06;93308.38;;;2.87;93.90
42335;BME280;27986;42.700;24.178;2022-11-22T05:05:37;93276.81;;;2.69;92.82
42335;BME280;27986;42.700;24.178;2022-11-22T05:08:03;93345.25;;;3.07;93.29
42335;BME280;27986;42.700;24.178;2022-11-22T05:10:29;93311.56;;;3.05;91.90
42335;BME280;27986;42.700;24.178;2022-11-22T05:13:19;93301.88;;;2.95;91.93
42335;BME280;27986;42.700;24.178;2022-11-22T05:15:52;93330.91;;;3.15;91.32
42335;BME280;27986;42.700;24.178;2022-11-22T05:18:18;93345.69;;;3.00;91.78
42335;BME280;27986;42.700;24.178;2022-11-22T05:20:46;93307.03;;;2.56;93.15
42335;BME280;27986;42.700;24.178;2022-11-22T05:23:13;93308.69;;;2.48;94.78
42335;BME280;27986;42.700;24.178;2022-11-22T05:25:57;93332.50;;;2.29;95.07
42335;BME280;27986;42.700;24.178;2022-11-22T05:28:26;93286.38;;;2.02;95.41
42335;BME280;27986;42.700;24.178;2022-11-22T05:30:51;93310.59;;;1.95;96.82
42335;BME280;27986;42.700;24.178;2022-11-22T05:33:17;93296.75;;;1.81;98.07
42335;BME280;27986;42.700;24.178;2022-11-22T05:35:42;93273.63;;;1.54;99.73
42335;BME280;27986;42.700;24.178;2022-11-22T05:38:08;93283.25;;;1.38;100.00
42335;BME280;27986;42.700;24.178;2022-11-22T05:40:33;93298.19;;;1.41;100.00
42335;BME280;27986;42.700;24.178;2022-11-22T05:42:59;93308.41;;;1.50;100.00
42335;BME280;27986;42.700;24.178;2022-11-22T05:45:24;93338.66;;;1.77;100.00
42335;BME280;27986;42.700;24.178;2022-11-22T05:47:50;93342.28;;;2.04;100.00
42335;BME280;27986;42.700;24.178;2022-11-22T05:50:15;93321.84;;;2.07;100.00
42335;BME280;27986;42.700;24.178;2022-11-22T05:52:41;93340.72;;;1.82;100.00
42335;BME280;27986;42.700;24.178;2022-11-22T05:55:06;93338.56;;;1.72;100.00
42335;BME280;27986;42.700;24.178;2022-11-22T05:57:32;93353.91;;;2.02;100.00
42335;BME280;27986;42.700;24.178;2022-11-22T05:59:58;93342.78;;;2.43;100.00
42335;BME280;27986;42.700;24.178;2022-11-22T06:02:24;93342.81;;;2.69;100.00
42335;BME280;27986;42.700;24.178;2022-11-22T06:04:49;93375.78;;;3.22;100.00
42335;BME280;27986;42.700;24.178;2022-11-22T06:07:15;93354.19;;;3.43;100.00
42335;BME280;27986;42.700;24.178;2022-11-22T06:09:40;93356.09;;;3.89;100.00
42335;BME280;27986;42.700;24.178;2022-11-22T06:12:06;93371.81;;;4.29;100.00
42335;BME280;27986;42.700;24.178;2022-11-22T06:14:32;93371.78;;;4.23;96.94
42335;BME280;27986;42.700;24.178;2022-11-22T06:16:58;93347.97;;;3.91;91.23
42335;BME280;27986;42.700;24.178;2022-11-22T06:19:23;93376.13;;;3.93;88.72
42335;BME280;27986;42.700;24.178;2022-11-22T06:21:48;93352.22;;;3.49;89.72
42335;BME280;27986;42.700;24.178;2022-11-22T06:24:14;93383.91;;;3.52;91.20
42335;BME280;27986;42.700;24.178;2022-11-22T06:26:39;93358.97;;;3.37;92.63
42335;BME280;27986;42.700;24.178;2022-11-22T06:29:05;93343.94;;;3.29;92.52
42335;BME280;27986;42.700;24.178;2022-11-22T06:31:30;93379.16;;;3.58;93.71
42335;BME280;27986;42.700;24.178;2022-11-22T06:33:58;93373.25;;;3.82;93.04
42335;BME280;27986;42.700;24.178;2022-11-22T06:36:26;93342.03;;;3.72;93.21
42335;BME280;27986;42.700;24.178;2022-11-22T06:38:52;93360.72;;;4.03;90.71
42335;BME280;27986;42.700;24.178;2022-11-22T06:41:19;93358.94;;;4.00;90.38
42335;BME280;27986;42.700;24.178;2022-11-22T06:43:47;93387.75;;;4.29;91.23
42335;BME280;27986;42.700;24.178;2022-11-22T06:46:13;93366.09;;;4.07;89.67
42335;BME280;27986;42.700;24.178;2022-11-22T06:48:40;93385.09;;;4.51;89.56
42335;BME280;27986;42.700;24.178;2022-11-22T06:51:15;93396.13;;;4.71;87.82
42335;BME280;27986;42.700;24.178;2022-11-22T06:53:41;93390.22;;;4.58;87.10
42335;BME280;27986;42.700;24.178;2022-11-22T06:56:12;93392.41;;;4.91;87.07
42335;BME280;27986;42.700;24.178;2022-11-22T06:58:38;93389.41;;;5.12;84.80
42335;BME280;27986;42.700;24.178;2022-11-22T07:01:07;93370.13;;;5.14;84.51
42335;BME280;27986;42.700;24.178;2022-11-22T07:03:37;93358.38;;;5.04;84.29
42335;BME280;27986;42.700;24.178;2022-11-22T07:06:04;93384.84;;;5.20;85.44
42335;BME280;27986;42.700;24.178;2022-11-22T07:08:30;93363.56;;;5.50;84.33
42335;BME280;27986;42.700;24.178;2022-11-22T07:11:06;93369.94;;;5.73;82.44
42335;BME280;27986;42.700;24.178;2022-11-22T07:13:32;93359.19;;;5.16;83.75
42335;BME280;27986;42.700;24.178;2022-11-22T07:16:00;93359.84;;;4.77;83.24
42335;BME280;27986;42.700;24.178;2022-11-22T07:18:26;93354.31;;;4.88;85.03
42335;BME280;27986;42.700;24.178;2022-11-22T07:20:52;93395.84;;;5.46;84.04
42335;BME280;27986;42.700;24.178;2022-11-22T07:23:17;93405.63;;;5.02;84.79
42335;BME280;27986;42.700;24.178;2022-11-22T07:25:47;93365.31;;;4.49;86.86
42335;BME280;27986;42.700;24.178;2022-11-22T07:28:14;93378.69;;;4.93;86.69
42335;BME280;27986;42.700;24.178;2022-11-22T07:30:40;93406.44;;;5.08;87.47
42335;BME280;27986;42.700;24.178;2022-11-22T07:33:06;93389.09;;;4.93;87.95
42335;BME280;27986;42.700;24.178;2022-11-22T07:35:31;93395.09;;;4.63;87.36
42335;BME280;27986;42.700;24.178;2022-11-22T07:37:57;93354.22;;;4.66;88.95
42335;BME280;27986;42.700;24.178;2022-11-22T07:40:22;93381.28;;;5.08;87.30
42335;BME280;27986;42.700;24.178;2022-11-22T07:42:48;93374.44;;;5.15;87.06
42335;BME280;27986;42.700;24.178;2022-11-22T07:45:13;93359.75;;;5.53;86.05
42335;BME280;27986;42.700;24.178;2022-11-22T07:47:39;93383.41;;;5.58;82.81
42335;BME280;27986;42.700;24.178;2022-11-22T07:50:04;93406.94;;;5.06;86.77
42335;BME280;27986;42.700;24.178;2022-11-22T07:52:30;93365.88;;;4.64;88.40
42335;BME280;27986;42.700;24.178;2022-11-22T07:54:55;93379.81;;;4.59;91.21
42335;BME280;27986;42.700;24.178;2022-11-22T07:57:21;93371.59;;;4.98;92.16
42335;BME280;27986;42.700;24.178;2022-11-22T07:59:47;93360.47;;;5.26;90.50
42335;BME280;27986;42.700;24.178;2022-11-22T08:02:12;93370.91;;;5.25;88.36
42335;BME280;27986;42.700;24.178;2022-11-22T08:04:38;93345.25;;;5.44;87.85
42335;BME280;27986;42.700;24.178;2022-11-22T08:07:04;93380.38;;;6.23;84.99
42335;BME280;27986;42.700;24.178;2022-11-22T08:09:29;93344.16;;;6.53;82.71
42335;BME280;27986;42.700;24.178;2022-11-22T08:11:55;93341.03;;;6.73;80.98
42335;BME280;27986;42.700;24.178;2022-11-22T08:14:21;93341.16;;;7.03;79.23
42335;BME280;27986;42.700;24.178;2022-11-22T08:16:47;93370.22;;;7.47;77.99
42335;BME280;27986;42.700;24.178;2022-11-22T08:19:12;93380.78;;;7.71;77.81
42335;BME280;27986;42.700;24.178;2022-11-22T08:21:42;93358.31;;;7.77;76.35
42335;BME280;27986;42.700;24.178;2022-11-22T08:24:07;93366.78;;;8.01;76.00
42335;BME280;27986;42.700;24.178;2022-11-22T08:26:33;93358.75;;;8.16;74.35
42335;BME280;27986;42.700;24.178;2022-11-22T08:28:59;93369.56;;;8.37;73.51
42335;BME280;27986;42.700;24.178;2022-11-22T08:31:25;93369.09;;;8.57;75.13
42335;BME280;27986;42.700;24.178;2022-11-22T08:33:54;93355.53;;;9.23;80.71
42335;BME280;27986;42.700;24.178;2022-11-22T08:36:24;93348.88;;;9.26;71.59
42335;BME280;27986;42.700;24.178;2022-11-22T08:38:52;93344.44;;;9.31;69.51
42335;BME280;27986;42.700;24.178;2022-11-22T08:41:18;93340.50;;;9.21;69.26
42335;BME280;27986;42.700;24.178;2022-11-22T08:43:43;93323.53;;;9.08;70.32
42335;BME280;27986;42.700;24.178;2022-11-22T08:46:09;93317.53;;;8.98;68.36
42335;BME280;27986;42.700;24.178;2022-11-22T08:48:37;93296.09;;;8.95;65.23
42335;BME280;27986;42.700;24.178;2022-11-22T08:51:05;93292.06;;;8.90;64.46
42335;BME280;27986;42.700;24.178;2022-11-22T08:53:32;93277.72;;;8.94;61.85
42335;BME280;27986;42.700;24.178;2022-11-22T08:55:59;93317.41;;;9.28;63.29
42335;BME280;27986;42.700;24.178;2022-11-22T08:58:27;93295.19;;;9.24;64.03
42335;BME280;27986;42.700;24.178;2022-11-22T09:00:53;93310.09;;;9.38;62.56
42335;BME280;27986;42.700;24.178;2022-11-22T09:03:18;93299.28;;;9.42;62.50
42335;BME280;27986;42.700;24.178;2022-11-22T09:05:44;93291.66;;;9.56;61.21
42335;BME280;27986;42.700;24.178;2022-11-22T09:08:09;93269.06;;;9.62;60.51
42335;BME280;27986;42.700;24.178;2022-11-22T09:10:35;93255.53;;;9.41;62.32
42335;BME280;27986;42.700;24.178;2022-11-22T09:13:00;93258.97;;;9.53;60.48
42335;BME280;27986;42.700;24.178;2022-11-22T09:15:25;93272.16;;;9.58;59.85
42335;BME280;27986;42.700;24.178;2022-11-22T09:17:51;93245.28;;;9.44;59.23
42335;BME280;27986;42.700;24.178;2022-11-22T09:20:16;93249.84;;;9.47;59.00
42335;BME280;27986;42.700;24.178;2022-11-22T09:22:42;93272.16;;;9.58;58.30
42335;BME280;27986;42.700;24.178;2022-11-22T09:25:08;93230.00;;;9.71;58.96
42335;BME280;27986;42.700;24.178;2022-11-22T09:27:34;93229.03;;;9.82;57.75
42335;BME280;27986;42.700;24.178;2022-11-22T09:30:00;93253.84;;;10.29;57.33
42335;BME280;27986;42.700;24.178;2022-11-22T09:32:25;93262.09;;;10.66;57.33
42335;BME280;27986;42.700;24.178;2022-11-22T09:34:51;93238.34;;;10.75;58.83
42335;BME280;27986;42.700;24.178;2022-11-22T09:37:16;93246.69;;;10.94;60.57
42335;BME280;27986;42.700;24.178;2022-11-22T09:39:47;93274.06;;;11.20;61.96
42335;BME280;27986;42.700;24.178;2022-11-22T09:45:20;93259.31;;;11.27;61.83
42335;BME280;27986;42.700;24.178;2022-11-22T09:48:09;93253.97;;;11.23;61.35
42335;BME280;27986;42.700;24.178;2022-11-22T09:50:50;93256.00;;;11.70;72.55
42335;BME280;27986;42.700;24.178;2022-11-22T09:53:34;93247.81;;;12.22;67.05
42335;BME280;27986;42.700;24.178;2022-11-22T09:56:06;93242.03;;;12.35;67.59
42335;BME280;27986;42.700;24.178;2022-11-22T10:06:07;93269.69;;;11.66;48.66
42335;BME280;27986;42.700;24.178;2022-11-22T10:11:51;93252.84;;;11.40;46.93
42335;BME280;27986;42.700;24.178;2022-11-22T10:20:27;93275.25;;;11.24;44.27
42335;BME280;27986;42.700;24.178;2022-11-22T10:22:54;93254.78;;;11.11;43.63
42335;BME280;27986;42.700;24.178;2022-11-22T10:25:21;93235.59;;;10.83;44.69
42335;BME280;27986;42.700;24.178;2022-11-22T10:27:57;93247.78;;;11.25;46.79
42335;BME280;27986;42.700;24.178;2022-11-22T10:30:24;93257.19;;;11.41;50.92
42335;BME280;27986;42.700;24.178;2022-11-22T10:32:55;93269.00;;;11.52;52.99
42335;BME280;27986;42.700;24.178;2022-11-22T10:36:18;93260.19;;;11.43;55.80
42335;BME280;27986;42.700;24.178;2022-11-22T10:44:44;93240.72;;;11.32;55.52
42335;BME280;27986;42.700;24.178;2022-11-22T10:50:40;93221.00;;;11.73;53.45
42335;BME280;27986;42.700;24.178;2022-11-22T10:56:15;93224.31;;;11.85;52.66
42335;BME280;27986;42.700;24.178;2022-11-22T11:01:32;93206.41;;;12.03;52.72
42335;BME280;27986;42.700;24.178;2022-11-22T11:04:00;93192.09;;;11.80;46.94
42335;BME280;27986;42.700;24.178;2022-11-22T11:06:30;93187.59;;;11.64;47.16
42335;BME280;27986;42.700;24.178;2022-11-22T11:09:24;93207.72;;;11.81;46.14
42335;BME280;27986;42.700;24.178;2022-11-22T11:11:51;93194.97;;;11.88;46.75
42335;BME280;27986;42.700;24.178;2022-11-22T11:14:30;93189.94;;;11.94;45.07
42335;BME280;27986;42.700;24.178;2022-11-22T11:16:58;93191.09;;;11.99;46.20
42335;BME280;27986;42.700;24.178;2022-11-22T11:19:28;93173.94;;;11.97;46.74
42335;BME280;27986;42.700;24.178;2022-11-22T11:21:58;93186.63;;;12.03;44.42
42335;BME280;27986;42.700;24.178;2022-11-22T11:24:27;93144.59;;;11.79;44.77
42335;BME280;27986;42.700;24.178;2022-11-22T11:26:54;93172.44;;;12.24;44.18
42335;BME280;27986;42.700;24.178;2022-11-22T11:29:31;93167.44;;;12.38;43.86
42335;BME280;27986;42.700;24.178;2022-11-22T11:32:09;93159.06;;;12.25;43.88
42335;BME280;27986;42.700;24.178;2022-11-22T11:34:36;93134.59;;;11.99;43.77
42335;BME280;27986;42.700;24.178;2022-11-22T11:37:04;93120.53;;;12.06;43.78
42335;BME280;27986;42.700;24.178;2022-11-22T11:39:32;93145.44;;;12.16;44.18
42335;BME280;27986;42.700;24.178;2022-11-22T11:41:58;93128.75;;;11.97;43.94
42335;BME280;27986;42.700;24.178;2022-11-22T11:44:34;93133.38;;;11.87;44.15
42335;BME280;27986;42.700;24.178;2022-11-22T11:47:03;93153.13;;;12.07;44.24
42335;BME280;27986;42.700;24.178;2022-11-22T11:49:31;93150.16;;;12.13;44.54
42335;BME280;27986;42.700;24.178;2022-11-22T11:57:03;93153.91;;;12.16;44.92
42335;BME280;27986;42.700;24.178;2022-11-22T11:59:42;93129.69;;;11.99;45.44
42335;BME280;27986;42.700;24.178;2022-11-22T12:02:11;93157.00;;;12.25;44.29
42335;BME280;27986;42.700;24.178;2022-11-22T12:05:26;93158.88;;;12.23;43.83
42335;BME280;27986;42.700;24.178;2022-11-22T12:07:50;93135.34;;;11.99;44.01
42335;BME280;27986;42.700;24.178;2022-11-22T12:13:02;93147.59;;;12.02;46.15
42335;BME280;27986;42.700;24.178;2022-11-22T12:24:02;93138.47;;;12.17;47.56
42335;BME280;27986;42.700;24.178;2022-11-22T12:26:30;93159.59;;;12.52;47.37
42335;BME280;27986;42.700;24.178;2022-11-22T12:28:56;93127.25;;;12.32;48.38
42335;BME280;27986;42.700;24.178;2022-11-22T12:31:35;93149.38;;;12.41;49.17
42335;BME280;27986;42.700;24.178;2022-11-22T12:34:07;93125.59;;;12.08;49.58
42335;BME280;27986;42.700;24.178;2022-11-22T12:36:49;93140.66;;;12.03;48.98
42335;BME280;27986;42.700;24.178;2022-11-22T12:39:21;93128.47;;;11.66;49.52
42335;BME280;27986;42.700;24.178;2022-11-22T12:41:49;93126.22;;;11.65;50.40
42335;BME280;27986;42.700;24.178;2022-11-22T12:44:18;93110.88;;;11.32;50.17
42335;BME280;27986;42.700;24.178;2022-11-22T12:46:55;93110.19;;;11.18;51.39
42335;BME280;27986;42.700;24.178;2022-11-22T12:49:40;93115.34;;;11.06;51.24
42335;BME280;27986;42.700;24.178;2022-11-22T12:55:21;93094.13;;;10.71;51.72
42335;BME280;27986;42.700;24.178;2022-11-22T12:57:55;93095.63;;;10.72;52.51
42335;BME280;27986;42.700;24.178;2022-11-22T13:00:26;93079.50;;;10.59;52.25
42335;BME280;27986;42.700;24.178;2022-11-22T13:02:59;93102.66;;;10.79;52.19
42335;BME280;27986;42.700;24.178;2022-11-22T13:11:22;93075.03;;;10.43;51.73
42335;BME280;27986;42.700;24.178;2022-11-22T13:14:04;93063.69;;;10.22;51.88
42335;BME280;27986;42.700;24.178;2022-11-22T13:16:30;93076.00;;;10.32;52.56
42335;BME280;27986;42.700;24.178;2022-11-22T13:19:02;93100.59;;;10.45;52.84
42335;BME280;27986;42.700;24.178;2022-11-22T13:21:45;93077.31;;;10.31;52.42
42335;BME280;27986;42.700;24.178;2022-11-22T13:29:54;93092.50;;;10.28;54.38
42335;BME280;27986;42.700;24.178;2022-11-22T13:32:21;93055.34;;;10.03;54.98
42335;BME280;27986;42.700;24.178;2022-11-22T13:37:36;93095.88;;;10.27;52.82
42335;BME280;27986;42.700;24.178;2022-11-22T13:53:44;93076.91;;;10.27;56.21
42335;BME280;27986;42.700;24.178;2022-11-22T14:01:54;93037.28;;;9.72;57.63
42335;BME280;27986;42.700;24.178;2022-11-22T14:07:33;93070.41;;;9.93;60.08
42335;BME280;27986;42.700;24.178;2022-11-22T14:12:25;93077.50;;;10.33;54.77
42335;BME280;27986;42.700;24.178;2022-11-22T14:18:11;93091.84;;;9.69;55.65
42335;BME280;27986;42.700;24.178;2022-11-22T14:21:05;93083.41;;;9.69;54.14
42335;BME280;27986;42.700;24.178;2022-11-22T14:29:40;93060.47;;;9.52;55.11
42335;BME280;27986;42.700;24.178;2022-11-22T14:32:13;93086.78;;;9.68;55.42
42335;BME280;27986;42.700;24.178;2022-11-22T14:40:25;93070.22;;;9.77;55.55
42335;BME280;27986;42.700;24.178;2022-11-22T14:42:56;93037.41;;;9.53;56.59
42335;BME280;27986;42.700;24.178;2022-11-22T14:45:42;93027.75;;;9.36;58.33
42335;BME280;27986;42.700;24.178;2022-11-22T14:48:16;93032.63;;;9.48;58.10
42335;BME280;27986;42.700;24.178;2022-11-22T14:50:47;93039.66;;;9.55;57.39
42335;BME280;27986;42.700;24.178;2022-11-22T14:55:46;93044.75;;;9.56;56.88
42335;BME280;27986;42.700;24.178;2022-11-22T14:58:22;93032.09;;;9.37;57.03
42335;BME280;27986;42.700;24.178;2022-11-22T15:16:55;93027.84;;;9.17;52.98
42335;BME280;27986;42.700;24.178;2022-11-22T15:22:12;93025.56;;;9.15;53.14